sensor_id;sensor_type;location;lat;lon;timestamp;P1;durP1;ratioP1;P2;durP2;ratioP2
40599;SDS011;26309;50.924;4.754;2022-08-26T00:01:27;13.20;;;4.47;;
40599;SDS011;26309;50.924;4.754;2022-08-26T00:03:53;8.30;;;3.72;;
40599;SDS011;26309;50.924;4.754;2022-08-26T00:06:20;11.25;;;3.72;;
40599;SDS011;26309;50.924;4.754;2022-08-26T00:08:46;14.27;;;4.28;;
40599;SDS011;26309;50.924;4.754;2022-08-26T00:11:11;13.63;;;3.95;;
40599;SDS011;26309;50.924;4.754;2022-08-26T00:13:38;6.18;;;3.80;;
40599;SDS011;26309;50.924;4.754;2022-08-26T00:16:04;10.38;;;4.30;;
40599;SDS011;26309;50.924;4.754;2022-08-26T00:18:31;11.57;;;4.35;;
40599;SDS011;26309;50.924;4.754;2022-08-26T00:20:57;16.35;;;3.92;;
40599;SDS011;26309;50.924;4.754;2022-08-26T00:23:23;8.60;;;3.70;;
40599;SDS011;26309;50.924;4.754;2022-08-26T00:25:50;10.43;;;4.18;;
40599;SDS011;26309;50.924;4.754;2022-08-26T00:28:16;10.95;;;3.58;;
40599;SDS011;26309;50.924;4.754;2022-08-26T00:30:42;12.70;;;4.05;;
40599;SDS011;26309;50.924;4.754;2022-08-26T00:33:12;9.18;;;4.18;;
40599;SDS011;26309;50.924;4.754;2022-08-26T00:35:40;10.05;;;3.70;;
40599;SDS011;26309;50.924;4.754;2022-08-26T00:38:06;10.57;;;4.55;;
40599;SDS011;26309;50.924;4.754;2022-08-26T00:40:37;8.70;;;4.10;;
40599;SDS011;26309;50.924;4.754;2022-08-26T00:43:07;11.18;;;4.35;;
40599;SDS011;26309;50.924;4.754;2022-08-26T00:45:39;9.10;;;3.63;;
40599;SDS011;26309;50.924;4.754;2022-08-26T00:48:10;10.27;;;3.47;;
40599;SDS011;26309;50.924;4.754;2022-08-26T00:50:39;11.15;;;3.53;;
40599;SDS011;26309;50.924;4.754;2022-08-26T00:53:13;9.38;;;3.42;;
40599;SDS011;26309;50.924;4.754;2022-08-26T00:55:54;7.20;;;2.83;;
40599;SDS011;26309;50.924;4.754;2022-08-26T00:58:28;7.38;;;3.10;;
40599;SDS011;26309;50.924;4.754;2022-08-26T01:00:56;10.70;;;3.33;;
40599;SDS011;26309;50.924;4.754;2022-08-26T01:03:22;7.55;;;2.95;;
40599;SDS011;26309;50.924;4.754;2022-08-26T01:05:52;5.53;;;2.70;;
40599;SDS011;26309;50.924;4.754;2022-08-26T01:08:20;7.25;;;2.78;;
40599;SDS011;26309;50.924;4.754;2022-08-26T01:10:47;11.35;;;2.95;;
40599;SDS011;26309;50.924;4.754;2022-08-26T01:13:13;10.15;;;2.55;;
40599;SDS011;26309;50.924;4.754;2022-08-26T01:15:43;9.25;;;2.10;;
40599;SDS011;26309;50.924;4.754;2022-08-26T01:18:12;6.45;;;2.30;;
40599;SDS011;26309;50.924;4.754;2022-08-26T01:23:25;7.45;;;2.42;;
40599;SDS011;26309;50.924;4.754;2022-08-26T01:25:56;10.27;;;2.47;;
40599;SDS011;26309;50.924;4.754;2022-08-26T01:28:28;6.20;;;2.20;;
40599;SDS011;26309;50.924;4.754;2022-08-26T01:30:57;4.88;;;2.30;;
40599;SDS011;26309;50.924;4.754;2022-08-26T01:33:30;6.70;;;2.30;;
40599;SDS011;26309;50.924;4.754;2022-08-26T01:36:16;6.10;;;2.17;;
40599;SDS011;26309;50.924;4.754;2022-08-26T01:38:42;6.40;;;2.30;;
40599;SDS011;26309;50.924;4.754;2022-08-26T01:41:09;3.60;;;1.85;;
40599;SDS011;26309;50.924;4.754;2022-08-26T01:43:40;11.40;;;2.35;;
40599;SDS011;26309;50.924;4.754;2022-08-26T01:46:12;9.02;;;2.10;;
40599;SDS011;26309;50.924;4.754;2022-08-26T01:48:40;5.13;;;1.70;;
40599;SDS011;26309;50.924;4.754;2022-08-26T01:51:08;5.60;;;1.98;;
40599;SDS011;26309;50.924;4.754;2022-08-26T01:53:35;2.90;;;1.60;;
40599;SDS011;26309;50.924;4.754;2022-08-26T01:56:02;5.40;;;1.70;;
40599;SDS011;26309;50.924;4.754;2022-08-26T01:58:32;8.10;;;1.98;;
40599;SDS011;26309;50.924;4.754;2022-08-26T02:01:05;4.13;;;1.55;;
40599;SDS011;26309;50.924;4.754;2022-08-26T02:03:31;3.63;;;1.42;;
40599;SDS011;26309;50.924;4.754;2022-08-26T02:05:59;8.30;;;1.65;;
40599;SDS011;26309;50.924;4.754;2022-08-26T02:11:15;5.68;;;1.60;;
40599;SDS011;26309;50.924;4.754;2022-08-26T02:13:47;6.18;;;1.75;;
40599;SDS011;26309;50.924;4.754;2022-08-26T02:16:16;7.32;;;1.95;;
40599;SDS011;26309;50.924;4.754;2022-08-26T02:18:45;5.07;;;1.50;;
40599;SDS011;26309;50.924;4.754;2022-08-26T02:21:12;6.68;;;1.40;;
40599;SDS011;26309;50.924;4.754;2022-08-26T02:23:38;4.63;;;1.50;;
40599;SDS011;26309;50.924;4.754;2022-08-26T02:26:09;4.85;;;1.42;;
40599;SDS011;26309;50.924;4.754;2022-08-26T02:28:40;7.10;;;1.48;;
40599;SDS011;26309;50.924;4.754;2022-08-26T02:31:13;7.68;;;1.65;;
40599;SDS011;26309;50.924;4.754;2022-08-26T02:33:39;6.90;;;1.40;;
40599;SDS011;26309;50.924;4.754;2022-08-26T02:36:05;7.20;;;1.83;;
40599;SDS011;26309;50.924;4.754;2022-08-26T02:38:32;11.38;;;2.00;;
40599;SDS011;26309;50.924;4.754;2022-08-26T02:40:58;6.75;;;1.63;;
40599;SDS011;26309;50.924;4.754;2022-08-26T02:43:24;8.23;;;1.80;;
40599;SDS011;26309;50.924;4.754;2022-08-26T02:45:50;4.22;;;1.30;;
40599;SDS011;26309;50.924;4.754;2022-08-26T02:48:17;7.60;;;1.75;;
40599;SDS011;26309;50.924;4.754;2022-08-26T02:50:46;4.18;;;1.70;;
40599;SDS011;26309;50.924;4.754;2022-08-26T02:53:13;7.80;;;1.83;;
40599;SDS011;26309;50.924;4.754;2022-08-26T02:55:39;5.82;;;1.45;;
40599;SDS011;26309;50.924;4.754;2022-08-26T02:58:05;4.20;;;1.90;;
40599;SDS011;26309;50.924;4.754;2022-08-26T03:00:34;9.18;;;1.67;;
40599;SDS011;26309;50.924;4.754;2022-08-26T03:03:02;7.40;;;1.85;;
40599;SDS011;26309;50.924;4.754;2022-08-26T03:05:28;10.45;;;2.20;;
40599;SDS011;26309;50.924;4.754;2022-08-26T03:07:54;6.38;;;1.73;;
40599;SDS011;26309;50.924;4.754;2022-08-26T03:10:20;6.72;;;2.03;;
40599;SDS011;26309;50.924;4.754;2022-08-26T03:12:46;5.82;;;1.77;;
40599;SDS011;26309;50.924;4.754;2022-08-26T03:15:14;9.57;;;1.73;;
40599;SDS011;26309;50.924;4.754;2022-08-26T03:17:42;7.63;;;1.75;;
40599;SDS011;26309;50.924;4.754;2022-08-26T03:20:08;6.72;;;1.60;;
40599;SDS011;26309;50.924;4.754;2022-08-26T03:22:35;5.60;;;1.70;;
40599;SDS011;26309;50.924;4.754;2022-08-26T03:25:03;3.88;;;1.70;;
40599;SDS011;26309;50.924;4.754;2022-08-26T03:27:30;6.38;;;1.80;;
40599;SDS011;26309;50.924;4.754;2022-08-26T03:29:57;5.43;;;1.80;;
40599;SDS011;26309;50.924;4.754;2022-08-26T03:32:42;8.38;;;1.90;;
40599;SDS011;26309;50.924;4.754;2022-08-26T03:35:08;5.45;;;2.05;;
40599;SDS011;26309;50.924;4.754;2022-08-26T03:37:36;9.77;;;2.00;;
40599;SDS011;26309;50.924;4.754;2022-08-26T03:40:03;5.32;;;1.70;;
40599;SDS011;26309;50.924;4.754;2022-08-26T03:42:30;6.13;;;2.10;;
40599;SDS011;26309;50.924;4.754;2022-08-26T03:44:56;5.43;;;2.03;;
40599;SDS011;26309;50.924;4.754;2022-08-26T03:47:21;6.03;;;2.10;;
40599;SDS011;26309;50.924;4.754;2022-08-26T03:49:47;4.50;;;2.17;;
40599;SDS011;26309;50.924;4.754;2022-08-26T03:52:13;6.78;;;2.20;;
40599;SDS011;26309;50.924;4.754;2022-08-26T03:54:39;6.18;;;2.03;;
40599;SDS011;26309;50.924;4.754;2022-08-26T03:57:05;8.63;;;3.08;;
40599;SDS011;26309;50.924;4.754;2022-08-26T03:59:33;9.07;;;2.38;;
40599;SDS011;26309;50.924;4.754;2022-08-26T04:01:58;11.50;;;2.95;;
40599;SDS011;26309;50.924;4.754;2022-08-26T04:04:24;6.45;;;2.40;;
40599;SDS011;26309;50.924;4.754;2022-08-26T04:06:54;9.10;;;2.63;;
40599;SDS011;26309;50.924;4.754;2022-08-26T04:09:22;6.10;;;2.40;;
40599;SDS011;26309;50.924;4.754;2022-08-26T04:11:49;6.28;;;2.45;;
40599;SDS011;26309;50.924;4.754;2022-08-26T04:14:16;7.93;;;2.67;;
40599;SDS011;26309;50.924;4.754;2022-08-26T04:16:44;6.35;;;2.40;;
40599;SDS011;26309;50.924;4.754;2022-08-26T04:19:11;6.22;;;2.50;;
40599;SDS011;26309;50.924;4.754;2022-08-26T04:21:37;9.05;;;2.85;;
40599;SDS011;26309;50.924;4.754;2022-08-26T04:24:05;5.05;;;2.40;;
40599;SDS011;26309;50.924;4.754;2022-08-26T04:26:33;9.35;;;2.90;;
40599;SDS011;26309;50.924;4.754;2022-08-26T04:29:04;8.13;;;2.90;;
40599;SDS011;26309;50.924;4.754;2022-08-26T04:31:32;7.60;;;2.55;;
40599;SDS011;26309;50.924;4.754;2022-08-26T04:33:59;7.95;;;2.90;;
40599;SDS011;26309;50.924;4.754;2022-08-26T04:36:25;7.30;;;3.03;;
40599;SDS011;26309;50.924;4.754;2022-08-26T04:38:52;7.07;;;2.90;;
40599;SDS011;26309;50.924;4.754;2022-08-26T04:41:18;8.45;;;2.80;;
40599;SDS011;26309;50.924;4.754;2022-08-26T04:43:44;5.07;;;2.67;;
40599;SDS011;26309;50.924;4.754;2022-08-26T04:46:12;5.57;;;2.50;;
40599;SDS011;26309;50.924;4.754;2022-08-26T04:48:42;7.43;;;2.65;;
40599;SDS011;26309;50.924;4.754;2022-08-26T04:51:08;5.07;;;2.35;;
40599;SDS011;26309;50.924;4.754;2022-08-26T04:53:35;10.55;;;2.88;;
40599;SDS011;26309;50.924;4.754;2022-08-26T04:56:01;8.55;;;2.72;;
40599;SDS011;26309;50.924;4.754;2022-08-26T04:58:28;4.90;;;2.25;;
40599;SDS011;26309;50.924;4.754;2022-08-26T05:00:54;6.25;;;2.50;;
40599;SDS011;26309;50.924;4.754;2022-08-26T05:03:21;7.13;;;2.33;;
40599;SDS011;26309;50.924;4.754;2022-08-26T05:05:48;6.10;;;2.65;;
40599;SDS011;26309;50.924;4.754;2022-08-26T05:08:15;4.72;;;2.40;;
40599;SDS011;26309;50.924;4.754;2022-08-26T05:10:49;7.55;;;2.83;;
40599;SDS011;26309;50.924;4.754;2022-08-26T05:13:22;10.55;;;2.38;;
40599;SDS011;26309;50.924;4.754;2022-08-26T05:15:50;3.72;;;2.33;;
40599;SDS011;26309;50.924;4.754;2022-08-26T05:18:18;5.25;;;2.08;;
40599;SDS011;26309;50.924;4.754;2022-08-26T05:20:46;3.50;;;2.08;;
40599;SDS011;26309;50.924;4.754;2022-08-26T05:23:14;3.40;;;2.03;;
40599;SDS011;26309;50.924;4.754;2022-08-26T05:25:42;4.90;;;1.90;;
40599;SDS011;26309;50.924;4.754;2022-08-26T05:28:12;5.22;;;2.17;;
40599;SDS011;26309;50.924;4.754;2022-08-26T05:30:39;6.25;;;2.00;;
40599;SDS011;26309;50.924;4.754;2022-08-26T05:33:06;5.13;;;2.17;;
40599;SDS011;26309;50.924;4.754;2022-08-26T05:35:33;4.20;;;2.08;;
40599;SDS011;26309;50.924;4.754;2022-08-26T05:38:04;10.25;;;2.00;;
40599;SDS011;26309;50.924;4.754;2022-08-26T05:40:33;7.20;;;1.80;;
40599;SDS011;26309;50.924;4.754;2022-08-26T05:43:00;4.93;;;1.98;;
40599;SDS011;26309;50.924;4.754;2022-08-26T05:45:26;5.55;;;1.85;;
40599;SDS011;26309;50.924;4.754;2022-08-26T05:47:52;6.57;;;2.00;;
40599;SDS011;26309;50.924;4.754;2022-08-26T05:50:18;7.72;;;1.83;;
40599;SDS011;26309;50.924;4.754;2022-08-26T05:52:49;5.75;;;1.85;;
40599;SDS011;26309;50.924;4.754;2022-08-26T05:55:15;6.18;;;1.95;;
40599;SDS011;26309;50.924;4.754;2022-08-26T05:57:42;4.25;;;1.92;;
40599;SDS011;26309;50.924;4.754;2022-08-26T06:00:09;6.82;;;1.88;;
40599;SDS011;26309;50.924;4.754;2022-08-26T06:02:36;5.63;;;1.60;;
40599;SDS011;26309;50.924;4.754;2022-08-26T06:05:03;9.07;;;1.90;;
40599;SDS011;26309;50.924;4.754;2022-08-26T06:07:30;5.45;;;1.88;;
40599;SDS011;26309;50.924;4.754;2022-08-26T06:10:14;6.85;;;1.70;;
40599;SDS011;26309;50.924;4.754;2022-08-26T06:12:40;7.35;;;1.80;;
40599;SDS011;26309;50.924;4.754;2022-08-26T06:15:07;5.75;;;1.85;;
40599;SDS011;26309;50.924;4.754;2022-08-26T06:17:33;4.70;;;1.65;;
40599;SDS011;26309;50.924;4.754;2022-08-26T06:19:59;7.47;;;1.80;;
40599;SDS011;26309;50.924;4.754;2022-08-26T06:22:25;4.25;;;1.63;;
40599;SDS011;26309;50.924;4.754;2022-08-26T06:25:09;5.35;;;1.60;;
40599;SDS011;26309;50.924;4.754;2022-08-26T06:27:54;5.93;;;1.70;;
40599;SDS011;26309;50.924;4.754;2022-08-26T06:30:20;5.78;;;1.98;;
40599;SDS011;26309;50.924;4.754;2022-08-26T06:32:45;6.35;;;1.58;;
40599;SDS011;26309;50.924;4.754;2022-08-26T06:35:11;4.72;;;1.73;;
40599;SDS011;26309;50.924;4.754;2022-08-26T06:37:37;4.07;;;1.67;;
40599;SDS011;26309;50.924;4.754;2022-08-26T06:40:04;3.58;;;1.55;;
40599;SDS011;26309;50.924;4.754;2022-08-26T06:42:30;5.38;;;1.45;;
40599;SDS011;26309;50.924;4.754;2022-08-26T06:44:57;5.53;;;1.70;;
40599;SDS011;26309;50.924;4.754;2022-08-26T06:47:23;7.13;;;1.67;;
40599;SDS011;26309;50.924;4.754;2022-08-26T06:49:49;5.03;;;1.40;;
40599;SDS011;26309;50.924;4.754;2022-08-26T06:52:16;5.43;;;1.52;;
40599;SDS011;26309;50.924;4.754;2022-08-26T06:54:42;5.00;;;1.50;;
40599;SDS011;26309;50.924;4.754;2022-08-26T06:57:08;7.32;;;1.65;;
40599;SDS011;26309;50.924;4.754;2022-08-26T06:59:35;6.00;;;1.52;;
40599;SDS011;26309;50.924;4.754;2022-08-26T07:02:01;5.60;;;1.42;;
40599;SDS011;26309;50.924;4.754;2022-08-26T07:04:27;9.48;;;1.63;;
40599;SDS011;26309;50.924;4.754;2022-08-26T07:06:53;7.00;;;1.83;;
40599;SDS011;26309;50.924;4.754;2022-08-26T07:09:21;6.20;;;1.27;;
40599;SDS011;26309;50.924;4.754;2022-08-26T07:11:48;4.05;;;1.40;;
40599;SDS011;26309;50.924;4.754;2022-08-26T07:14:15;5.32;;;1.55;;
40599;SDS011;26309;50.924;4.754;2022-08-26T07:16:42;4.68;;;1.48;;
40599;SDS011;26309;50.924;4.754;2022-08-26T07:19:09;6.60;;;1.60;;
40599;SDS011;26309;50.924;4.754;2022-08-26T07:21:35;4.45;;;1.63;;
40599;SDS011;26309;50.924;4.754;2022-08-26T07:24:01;7.85;;;1.27;;
40599;SDS011;26309;50.924;4.754;2022-08-26T07:26:27;5.03;;;1.20;;
40599;SDS011;26309;50.924;4.754;2022-08-26T07:28:55;3.95;;;1.65;;
40599;SDS011;26309;50.924;4.754;2022-08-26T07:31:23;4.38;;;1.35;;
40599;SDS011;26309;50.924;4.754;2022-08-26T07:33:50;5.40;;;1.30;;
40599;SDS011;26309;50.924;4.754;2022-08-26T07:36:17;2.78;;;1.30;;
40599;SDS011;26309;50.924;4.754;2022-08-26T07:38:43;2.72;;;1.33;;
40599;SDS011;26309;50.924;4.754;2022-08-26T07:41:10;4.00;;;1.60;;
40599;SDS011;26309;50.924;4.754;2022-08-26T07:43:41;5.93;;;1.42;;
40599;SDS011;26309;50.924;4.754;2022-08-26T07:46:07;4.50;;;1.20;;
40599;SDS011;26309;50.924;4.754;2022-08-26T07:48:34;4.50;;;1.48;;
40599;SDS011;26309;50.924;4.754;2022-08-26T07:51:00;3.25;;;1.42;;
40599;SDS011;26309;50.924;4.754;2022-08-26T07:53:27;4.93;;;1.20;;
40599;SDS011;26309;50.924;4.754;2022-08-26T07:55:53;4.60;;;1.25;;
40599;SDS011;26309;50.924;4.754;2022-08-26T07:58:18;3.33;;;1.10;;
40599;SDS011;26309;50.924;4.754;2022-08-26T08:00:44;2.67;;;1.23;;
40599;SDS011;26309;50.924;4.754;2022-08-26T08:03:11;5.75;;;1.02;;
40599;SDS011;26309;50.924;4.754;2022-08-26T08:05:38;3.85;;;1.10;;
40599;SDS011;26309;50.924;4.754;2022-08-26T08:08:05;3.22;;;1.13;;
40599;SDS011;26309;50.924;4.754;2022-08-26T08:10:32;5.72;;;1.38;;
40599;SDS011;26309;50.924;4.754;2022-08-26T08:12:59;7.00;;;1.20;;
40599;SDS011;26309;50.924;4.754;2022-08-26T08:15:26;2.42;;;1.25;;
40599;SDS011;26309;50.924;4.754;2022-08-26T08:17:57;5.38;;;1.40;;
40599;SDS011;26309;50.924;4.754;2022-08-26T08:20:23;2.30;;;1.13;;
40599;SDS011;26309;50.924;4.754;2022-08-26T08:22:51;4.38;;;1.20;;
40599;SDS011;26309;50.924;4.754;2022-08-26T08:25:17;6.00;;;1.60;;
40599;SDS011;26309;50.924;4.754;2022-08-26T08:27:44;4.50;;;1.17;;
40599;SDS011;26309;50.924;4.754;2022-08-26T08:30:13;2.95;;;1.00;;
40599;SDS011;26309;50.924;4.754;2022-08-26T08:32:41;6.78;;;1.33;;
40599;SDS011;26309;50.924;4.754;2022-08-26T08:35:08;5.50;;;1.02;;
40599;SDS011;26309;50.924;4.754;2022-08-26T08:37:35;2.95;;;1.20;;
40599;SDS011;26309;50.924;4.754;2022-08-26T08:40:02;4.57;;;1.50;;
40599;SDS011;26309;50.924;4.754;2022-08-26T08:42:42;4.00;;;1.30;;
40599;SDS011;26309;50.924;4.754;2022-08-26T08:45:21;4.00;;;1.20;;
40599;SDS011;26309;50.924;4.754;2022-08-26T08:51:03;5.07;;;1.60;;
40599;SDS011;26309;50.924;4.754;2022-08-26T08:53:44;4.90;;;1.80;;
40599;SDS011;26309;50.924;4.754;2022-08-26T08:59:18;6.43;;;2.15;;
40599;SDS011;26309;50.924;4.754;2022-08-26T09:01:58;5.80;;;2.63;;
40599;SDS011;26309;50.924;4.754;2022-08-26T09:07:17;5.53;;;2.72;;
40599;SDS011;26309;50.924;4.754;2022-08-26T09:10:00;9.82;;;3.30;;
40599;SDS011;26309;50.924;4.754;2022-08-26T09:12:35;6.43;;;3.17;;
40599;SDS011;26309;50.924;4.754;2022-08-26T09:16:04;6.93;;;2.80;;
40599;SDS011;26309;50.924;4.754;2022-08-26T09:21:09;5.25;;;2.35;;
40599;SDS011;26309;50.924;4.754;2022-08-26T09:23:39;7.78;;;2.60;;
40599;SDS011;26309;50.924;4.754;2022-08-26T09:26:24;6.32;;;2.50;;
40599;SDS011;26309;50.924;4.754;2022-08-26T09:28:58;6.32;;;2.63;;
40599;SDS011;26309;50.924;4.754;2022-08-26T09:31:30;7.25;;;2.30;;
40599;SDS011;26309;50.924;4.754;2022-08-26T09:36:58;5.30;;;2.03;;
40599;SDS011;26309;50.924;4.754;2022-08-26T09:44:31;5.80;;;1.95;;
40599;SDS011;26309;50.924;4.754;2022-08-26T09:46:58;6.57;;;2.03;;
40599;SDS011;26309;50.924;4.754;2022-08-26T10:03:25;7.90;;;1.90;;
40599;SDS011;26309;50.924;4.754;2022-08-26T10:05:58;4.50;;;1.58;;
40599;SDS011;26309;50.924;4.754;2022-08-26T10:08:31;5.10;;;1.73;;
40599;SDS011;26309;50.924;4.754;2022-08-26T10:11:01;3.95;;;1.60;;
40599;SDS011;26309;50.924;4.754;2022-08-26T10:13:35;5.10;;;1.40;;
40599;SDS011;26309;50.924;4.754;2022-08-26T10:16:13;3.90;;;1.92;;
40599;SDS011;26309;50.924;4.754;2022-08-26T10:18:45;4.72;;;1.58;;
40599;SDS011;26309;50.924;4.754;2022-08-26T10:21:15;3.20;;;1.40;;
40599;SDS011;26309;50.924;4.754;2022-08-26T10:23:51;5.63;;;1.83;;
40599;SDS011;26309;50.924;4.754;2022-08-26T10:28:56;6.10;;;1.55;;
40599;SDS011;26309;50.924;4.754;2022-08-26T10:31:41;2.83;;;1.20;;
40599;SDS011;26309;50.924;4.754;2022-08-26T10:34:19;4.07;;;1.60;;
40599;SDS011;26309;50.924;4.754;2022-08-26T10:37:07;2.20;;;1.30;;
40599;SDS011;26309;50.924;4.754;2022-08-26T10:42:18;5.40;;;1.85;;
40599;SDS011;26309;50.924;4.754;2022-08-26T10:50:32;4.30;;;1.75;;
40599;SDS011;26309;50.924;4.754;2022-08-26T10:58:53;7.00;;;1.88;;
40599;SDS011;26309;50.924;4.754;2022-08-26T11:10:04;3.58;;;1.60;;
40599;SDS011;26309;50.924;4.754;2022-08-26T11:15:09;4.03;;;1.52;;
40599;SDS011;26309;50.924;4.754;2022-08-26T11:20:30;6.03;;;1.50;;
40599;SDS011;26309;50.924;4.754;2022-08-26T11:31:09;4.70;;;1.33;;
40599;SDS011;26309;50.924;4.754;2022-08-26T11:33:59;2.58;;;1.20;;
40599;SDS011;26309;50.924;4.754;2022-08-26T11:44:46;2.92;;;1.00;;
40599;SDS011;26309;50.924;4.754;2022-08-26T11:47:13;1.13;;;0.85;;
40599;SDS011;26309;50.924;4.754;2022-08-26T11:49:41;3.28;;;1.23;;
40599;SDS011;26309;50.924;4.754;2022-08-26T11:54:35;3.25;;;1.20;;
40599;SDS011;26309;50.924;4.754;2022-08-26T11:57:01;4.90;;;1.27;;
40599;SDS011;26309;50.924;4.754;2022-08-26T11:59:30;1.75;;;0.80;;
40599;SDS011;26309;50.924;4.754;2022-08-26T12:02:00;7.03;;;1.20;;
40599;SDS011;26309;50.924;4.754;2022-08-26T12:04:33;2.67;;;0.80;;
40599;SDS011;26309;50.924;4.754;2022-08-26T12:07:03;3.20;;;0.98;;
40599;SDS011;26309;50.924;4.754;2022-08-26T12:09:33;2.70;;;1.02;;
40599;SDS011;26309;50.924;4.754;2022-08-26T12:12:08;2.72;;;0.90;;
40599;SDS011;26309;50.924;4.754;2022-08-26T12:14:42;4.40;;;1.40;;
40599;SDS011;26309;50.924;4.754;2022-08-26T12:17:11;3.10;;;1.20;;
40599;SDS011;26309;50.924;4.754;2022-08-26T12:19:43;2.17;;;0.90;;
40599;SDS011;26309;50.924;4.754;2022-08-26T12:24:55;3.20;;;1.20;;
40599;SDS011;26309;50.924;4.754;2022-08-26T12:27:34;6.43;;;1.45;;
40599;SDS011;26309;50.924;4.754;2022-08-26T12:30:18;4.13;;;1.20;;
40599;SDS011;26309;50.924;4.754;2022-08-26T12:32:51;3.08;;;0.90;;
40599;SDS011;26309;50.924;4.754;2022-08-26T12:35:27;5.35;;;1.10;;
40599;SDS011;26309;50.924;4.754;2022-08-26T12:37:53;4.72;;;0.93;;
40599;SDS011;26309;50.924;4.754;2022-08-26T12:43:07;2.60;;;1.00;;
40599;SDS011;26309;50.924;4.754;2022-08-26T12:45:55;3.25;;;1.10;;
40599;SDS011;26309;50.924;4.754;2022-08-26T12:48:28;6.10;;;1.05;;
40599;SDS011;26309;50.924;4.754;2022-08-26T12:50:56;2.65;;;1.00;;
40599;SDS011;26309;50.924;4.754;2022-08-26T12:53:28;2.60;;;1.15;;
40599;SDS011;26309;50.924;4.754;2022-08-26T12:55:57;4.35;;;1.10;;
40599;SDS011;26309;50.924;4.754;2022-08-26T12:58:29;5.18;;;1.20;;
40599;SDS011;26309;50.924;4.754;2022-08-26T13:11:17;2.53;;;1.38;;
40599;SDS011;26309;50.924;4.754;2022-08-26T13:13:48;5.57;;;1.70;;
40599;SDS011;26309;50.924;4.754;2022-08-26T13:16:34;3.60;;;1.48;;
40599;SDS011;26309;50.924;4.754;2022-08-26T13:19:04;3.47;;;1.48;;
40599;SDS011;26309;50.924;4.754;2022-08-26T13:21:35;3.30;;;1.20;;
40599;SDS011;26309;50.924;4.754;2022-08-26T13:24:07;5.13;;;1.58;;
40599;SDS011;26309;50.924;4.754;2022-08-26T13:26:36;3.17;;;1.33;;
40599;SDS011;26309;50.924;4.754;2022-08-26T13:29:06;5.90;;;1.40;;
40599;SDS011;26309;50.924;4.754;2022-08-26T13:31:33;5.95;;;1.92;;
40599;SDS011;26309;50.924;4.754;2022-08-26T13:34:00;3.33;;;1.70;;
40599;SDS011;26309;50.924;4.754;2022-08-26T13:36:27;3.67;;;1.92;;
40599;SDS011;26309;50.924;4.754;2022-08-26T13:38:53;6.30;;;1.95;;
40599;SDS011;26309;50.924;4.754;2022-08-26T13:41:19;5.75;;;2.03;;
40599;SDS011;26309;50.924;4.754;2022-08-26T13:43:45;2.92;;;1.90;;
40599;SDS011;26309;50.924;4.754;2022-08-26T13:46:11;5.03;;;1.83;;
40599;SDS011;26309;50.924;4.754;2022-08-26T13:48:37;4.30;;;1.90;;
40599;SDS011;26309;50.924;4.754;2022-08-26T13:51:03;3.13;;;1.60;;
40599;SDS011;26309;50.924;4.754;2022-08-26T13:53:29;4.78;;;1.67;;
40599;SDS011;26309;50.924;4.754;2022-08-26T13:55:58;4.13;;;1.40;;
40599;SDS011;26309;50.924;4.754;2022-08-26T13:58:26;2.17;;;1.50;;
40599;SDS011;26309;50.924;4.754;2022-08-26T14:00:53;5.68;;;1.42;;
40599;SDS011;26309;50.924;4.754;2022-08-26T14:03:20;1.92;;;1.40;;
40599;SDS011;26309;50.924;4.754;2022-08-26T14:05:49;3.65;;;1.40;;
40599;SDS011;26309;50.924;4.754;2022-08-26T14:08:18;4.15;;;1.50;;
40599;SDS011;26309;50.924;4.754;2022-08-26T14:10:45;4.00;;;1.50;;
40599;SDS011;26309;50.924;4.754;2022-08-26T14:13:11;4.35;;;1.50;;
40599;SDS011;26309;50.924;4.754;2022-08-26T14:15:37;6.15;;;1.63;;
40599;SDS011;26309;50.924;4.754;2022-08-26T14:18:05;3.13;;;1.20;;
40599;SDS011;26309;50.924;4.754;2022-08-26T14:20:33;2.25;;;1.38;;
40599;SDS011;26309;50.924;4.754;2022-08-26T14:23:01;3.60;;;1.40;;
40599;SDS011;26309;50.924;4.754;2022-08-26T14:25:28;5.40;;;1.60;;
40599;SDS011;26309;50.924;4.754;2022-08-26T14:27:54;7.10;;;1.52;;
40599;SDS011;26309;50.924;4.754;2022-08-26T14:30:23;6.65;;;1.63;;
40599;SDS011;26309;50.924;4.754;2022-08-26T14:32:50;3.30;;;1.13;;
40599;SDS011;26309;50.924;4.754;2022-08-26T14:35:20;5.30;;;1.50;;
40599;SDS011;26309;50.924;4.754;2022-08-26T14:37:51;4.07;;;1.20;;
40599;SDS011;26309;50.924;4.754;2022-08-26T14:40:19;2.45;;;1.20;;
40599;SDS011;26309;50.924;4.754;2022-08-26T14:42:47;1.85;;;1.30;;
40599;SDS011;26309;50.924;4.754;2022-08-26T14:45:15;2.58;;;1.40;;
40599;SDS011;26309;50.924;4.754;2022-08-26T14:47:44;8.10;;;1.75;;
40599;SDS011;26309;50.924;4.754;2022-08-26T14:50:11;6.07;;;1.73;;
40599;SDS011;26309;50.924;4.754;2022-08-26T14:52:39;5.97;;;1.70;;
40599;SDS011;26309;50.924;4.754;2022-08-26T14:55:24;7.75;;;1.80;;
40599;SDS011;26309;50.924;4.754;2022-08-26T14:57:50;4.80;;;1.40;;
40599;SDS011;26309;50.924;4.754;2022-08-26T15:00:17;6.82;;;1.60;;
40599;SDS011;26309;50.924;4.754;2022-08-26T15:02:43;5.10;;;1.60;;
40599;SDS011;26309;50.924;4.754;2022-08-26T15:05:09;3.97;;;1.50;;
40599;SDS011;26309;50.924;4.754;2022-08-26T15:07:36;3.72;;;1.35;;
40599;SDS011;26309;50.924;4.754;2022-08-26T15:10:07;5.65;;;1.77;;
40599;SDS011;26309;50.924;4.754;2022-08-26T15:12:36;4.32;;;1.70;;
40599;SDS011;26309;50.924;4.754;2022-08-26T15:15:03;8.65;;;1.60;;
40599;SDS011;26309;50.924;4.754;2022-08-26T15:17:30;7.70;;;1.70;;
40599;SDS011;26309;50.924;4.754;2022-08-26T15:19:56;6.82;;;1.85;;
40599;SDS011;26309;50.924;4.754;2022-08-26T15:22:22;4.95;;;1.60;;
40599;SDS011;26309;50.924;4.754;2022-08-26T15:24:48;4.15;;;1.90;;
40599;SDS011;26309;50.924;4.754;2022-08-26T15:27:15;5.60;;;1.63;;
40599;SDS011;26309;50.924;4.754;2022-08-26T15:29:41;2.95;;;1.73;;
40599;SDS011;26309;50.924;4.754;2022-08-26T15:32:08;4.75;;;1.63;;
40599;SDS011;26309;50.924;4.754;2022-08-26T15:34:34;5.55;;;1.55;;
40599;SDS011;26309;50.924;4.754;2022-08-26T15:37:00;6.13;;;1.65;;
40599;SDS011;26309;50.924;4.754;2022-08-26T15:39:26;5.28;;;1.52;;
40599;SDS011;26309;50.924;4.754;2022-08-26T15:41:52;4.55;;;1.80;;
40599;SDS011;26309;50.924;4.754;2022-08-26T15:44:20;5.18;;;1.52;;
40599;SDS011;26309;50.924;4.754;2022-08-26T15:46:47;4.55;;;1.55;;
40599;SDS011;26309;50.924;4.754;2022-08-26T15:49:14;3.25;;;1.35;;
40599;SDS011;26309;50.924;4.754;2022-08-26T15:51:41;3.40;;;1.40;;
40599;SDS011;26309;50.924;4.754;2022-08-26T15:54:08;5.07;;;1.88;;
40599;SDS011;26309;50.924;4.754;2022-08-26T15:56:35;2.70;;;1.70;;
40599;SDS011;26309;50.924;4.754;2022-08-26T15:59:03;4.47;;;1.63;;
40599;SDS011;26309;50.924;4.754;2022-08-26T16:01:31;3.75;;;1.50;;
40599;SDS011;26309;50.924;4.754;2022-08-26T16:03:57;4.95;;;1.52;;
40599;SDS011;26309;50.924;4.754;2022-08-26T16:06:24;3.50;;;1.63;;
40599;SDS011;26309;50.924;4.754;2022-08-26T16:08:54;8.10;;;1.70;;
40599;SDS011;26309;50.924;4.754;2022-08-26T16:11:22;3.95;;;1.58;;
40599;SDS011;26309;50.924;4.754;2022-08-26T16:13:48;6.32;;;1.70;;
40599;SDS011;26309;50.924;4.754;2022-08-26T16:16:14;5.75;;;2.00;;
40599;SDS011;26309;50.924;4.754;2022-08-26T16:18:41;11.32;;;2.22;;
40599;SDS011;26309;50.924;4.754;2022-08-26T16:21:07;5.55;;;1.70;;
40599;SDS011;26309;50.924;4.754;2022-08-26T16:23:38;5.05;;;1.73;;
40599;SDS011;26309;50.924;4.754;2022-08-26T16:26:08;4.22;;;1.92;;
40599;SDS011;26309;50.924;4.754;2022-08-26T16:28:35;4.40;;;1.88;;
40599;SDS011;26309;50.924;4.754;2022-08-26T16:31:02;5.90;;;2.05;;
40599;SDS011;26309;50.924;4.754;2022-08-26T16:33:28;6.05;;;1.90;;
40599;SDS011;26309;50.924;4.754;2022-08-26T16:35:56;5.57;;;2.30;;
40599;SDS011;26309;50.924;4.754;2022-08-26T16:38:22;6.22;;;2.38;;
40599;SDS011;26309;50.924;4.754;2022-08-26T16:40:48;7.63;;;2.40;;